sensor_id;sensor_type;location;lat;lon;timestamp;temperature;humidity
61374;DHT22;47242;48.158;-1.586;2023-03-01T05:30:47;1.50;72.20
61374;DHT22;47242;48.158;-1.586;2023-03-01T05:33:17;1.50;72.10
61374;DHT22;47242;48.158;-1.586;2023-03-01T05:35:50;1.50;72.00
61374;DHT22;47242;48.158;-1.586;2023-03-01T05:38:17;1.40;72.00
61374;DHT22;47242;48.158;-1.586;2023-03-01T05:40:45;1.40;72.20
61374;DHT22;47242;48.158;-1.586;2023-03-01T05:43:12;1.30;72.40
61374;DHT22;47242;48.158;-1.586;2023-03-01T05:45:39;1.30;72.20
61374;DHT22;47242;48.158;-1.586;2023-03-01T05:48:06;1.40;72.00
61374;DHT22;47242;48.158;-1.586;2023-03-01T05:50:38;1.40;71.70
61374;DHT22;47242;48.158;-1.586;2023-03-01T05:53:07;1.40;71.60
61374;DHT22;47242;48.158;-1.586;2023-03-01T05:55:33;1.50;71.60
61374;DHT22;47242;48.158;-1.586;2023-03-01T05:58:05;1.40;71.80
61374;DHT22;47242;48.158;-1.586;2023-03-01T06:00:31;1.40;72.10
61374;DHT22;47242;48.158;-1.586;2023-03-01T06:02:58;1.40;72.00
61374;DHT22;47242;48.158;-1.586;2023-03-01T06:05:25;1.50;71.80
61374;DHT22;47242;48.158;-1.586;2023-03-01T06:07:51;1.50;71.50
61374;DHT22;47242;48.158;-1.586;2023-03-01T06:10:19;1.50;71.20
61374;DHT22;47242;48.158;-1.586;2023-03-01T06:12:45;1.50;71.20
61374;DHT22;47242;48.158;-1.586;2023-03-01T06:15:14;1.50;71.40
61374;DHT22;47242;48.158;-1.586;2023-03-01T06:17:41;1.60;71.00
61374;DHT22;47242;48.158;-1.586;2023-03-01T06:20:19;1.60;71.00
61374;DHT22;47242;48.158;-1.586;2023-03-01T06:22:45;1.60;70.70
61374;DHT22;47242;48.158;-1.586;2023-03-01T06:25:14;1.60;70.80
61374;DHT22;47242;48.158;-1.586;2023-03-01T06:27:40;1.60;70.70
61374;DHT22;47242;48.158;-1.586;2023-03-01T06:30:09;1.50;70.70
61374;DHT22;47242;48.158;-1.586;2023-03-01T06:32:36;1.50;70.50
61374;DHT22;47242;48.158;-1.586;2023-03-01T06:35:03;1.50;70.60
61374;DHT22;47242;48.158;-1.586;2023-03-01T06:37:28;1.50;70.60
61374;DHT22;47242;48.158;-1.586;2023-03-01T06:39:54;1.40;70.80
61374;DHT22;47242;48.158;-1.586;2023-03-01T06:42:20;1.30;71.00
61374;DHT22;47242;48.158;-1.586;2023-03-01T06:44:45;1.30;71.00
61374;DHT22;47242;48.158;-1.586;2023-03-01T06:47:13;1.30;71.20
61374;DHT22;47242;48.158;-1.586;2023-03-01T06:49:39;1.30;71.10
61374;DHT22;47242;48.158;-1.586;2023-03-01T06:52:05;1.20;71.20
61374;DHT22;47242;48.158;-1.586;2023-03-01T06:54:30;1.20;71.20
61374;DHT22;47242;48.158;-1.586;2023-03-01T06:56:56;1.20;71.20
61374;DHT22;47242;48.158;-1.586;2023-03-01T06:59:21;1.10;71.50
61374;DHT22;47242;48.158;-1.586;2023-03-01T07:01:47;1.20;71.30
61374;DHT22;47242;48.158;-1.586;2023-03-01T07:04:13;1.20;71.30
61374;DHT22;47242;48.158;-1.586;2023-03-01T07:06:39;1.10;71.20
61374;DHT22;47242;48.158;-1.586;2023-03-01T07:09:05;1.20;70.80
61374;DHT22;47242;48.158;-1.586;2023-03-01T07:11:31;1.30;70.70
61374;DHT22;47242;48.158;-1.586;2023-03-01T07:13:56;1.30;70.70
61374;DHT22;47242;48.158;-1.586;2023-03-01T07:16:23;1.30;70.40
61374;DHT22;47242;48.158;-1.586;2023-03-01T07:18:49;1.20;70.40
61374;DHT22;47242;48.158;-1.586;2023-03-01T07:21:15;1.20;70.60
61374;DHT22;47242;48.158;-1.586;2023-03-01T07:23:41;1.30;70.30
61374;DHT22;47242;48.158;-1.586;2023-03-01T07:26:07;1.30;70.20
61374;DHT22;47242;48.158;-1.586;2023-03-01T07:28:33;1.30;70.40
61374;DHT22;47242;48.158;-1.586;2023-03-01T07:31:04;1.30;70.30
61374;DHT22;47242;48.158;-1.586;2023-03-01T07:33:30;1.30;70.10
61374;DHT22;47242;48.158;-1.586;2023-03-01T07:36:04;1.40;69.90
61374;DHT22;47242;48.158;-1.586;2023-03-01T07:38:30;1.90;69.20
61374;DHT22;47242;48.158;-1.586;2023-03-01T07:41:03;2.50;67.70
61374;DHT22;47242;48.158;-1.586;2023-03-01T07:43:29;3.60;65.40
61374;DHT22;47242;48.158;-1.586;2023-03-01T07:45:58;5.00;62.10
61374;DHT22;47242;48.158;-1.586;2023-03-01T07:48:24;6.40;57.50
61374;DHT22;47242;48.158;-1.586;2023-03-01T07:50:50;7.70;54.20
61374;DHT22;47242;48.158;-1.586;2023-03-01T07:53:16;8.50;51.60
61374;DHT22;47242;48.158;-1.586;2023-03-01T07:55:41;9.20;49.40
61374;DHT22;47242;48.158;-1.586;2023-03-01T07:58:07;9.60;46.30
61374;DHT22;47242;48.158;-1.586;2023-03-01T08:00:32;9.80;46.40
61374;DHT22;47242;48.158;-1.586;2023-03-01T08:03:02;9.80;46.10
61374;DHT22;47242;48.158;-1.586;2023-03-01T08:05:28;9.60;46.20
61374;DHT22;47242;48.158;-1.586;2023-03-01T08:07:54;9.50;46.50
61374;DHT22;47242;48.158;-1.586;2023-03-01T08:10:20;9.60;46.10
61374;DHT22;47242;48.158;-1.586;2023-03-01T08:12:46;9.20;47.10
61374;DHT22;47242;48.158;-1.586;2023-03-01T08:15:11;9.00;47.70
61374;DHT22;47242;48.158;-1.586;2023-03-01T08:17:37;9.10;47.70
61374;DHT22;47242;48.158;-1.586;2023-03-01T08:20:03;9.10;46.60
61374;DHT22;47242;48.158;-1.586;2023-03-01T08:22:31;9.30;46.30
61374;DHT22;47242;48.158;-1.586;2023-03-01T08:24:57;9.40;46.90
61374;DHT22;47242;48.158;-1.586;2023-03-01T08:27:22;9.20;46.50
61374;DHT22;47242;48.158;-1.586;2023-03-01T08:29:48;9.10;46.50
61374;DHT22;47242;48.158;-1.586;2023-03-01T08:32:14;9.40;45.90
61374;DHT22;47242;48.158;-1.586;2023-03-01T08:34:39;9.60;45.70
61374;DHT22;47242;48.158;-1.586;2023-03-01T08:37:05;9.60;45.20
61374;DHT22;47242;48.158;-1.586;2023-03-01T08:39:30;9.40;46.40
61374;DHT22;47242;48.158;-1.586;2023-03-01T08:41:56;9.50;46.30
61374;DHT22;47242;48.158;-1.586;2023-03-01T08:44:22;10.00;45.80
61374;DHT22;47242;48.158;-1.586;2023-03-01T08:46:48;10.00;44.80
61374;DHT22;47242;48.158;-1.586;2023-03-01T08:49:19;10.40;44.50
61374;DHT22;47242;48.158;-1.586;2023-03-01T08:51:45;10.60;43.70
61374;DHT22;47242;48.158;-1.586;2023-03-01T08:54:18;11.00;43.40
61374;DHT22;47242;48.158;-1.586;2023-03-01T08:56:44;11.70;42.60
61374;DHT22;47242;48.158;-1.586;2023-03-01T08:59:11;11.80;41.60
61374;DHT22;47242;48.158;-1.586;2023-03-01T09:01:37;11.70;41.60
61374;DHT22;47242;48.158;-1.586;2023-03-01T09:04:03;11.70;41.00
61374;DHT22;47242;48.158;-1.586;2023-03-01T09:06:33;11.80;41.60
61374;DHT22;47242;48.158;-1.586;2023-03-01T09:08:59;12.00;41.00
61374;DHT22;47242;48.158;-1.586;2023-03-01T09:11:25;12.30;40.20
61374;DHT22;47242;48.158;-1.586;2023-03-01T09:13:50;12.40;39.80
61374;DHT22;47242;48.158;-1.586;2023-03-01T09:16:18;12.00;40.10
61374;DHT22;47242;48.158;-1.586;2023-03-01T09:18:48;11.80;40.40
61374;DHT22;47242;48.158;-1.586;2023-03-01T09:21:15;11.50;41.20
61374;DHT22;47242;48.158;-1.586;2023-03-01T09:23:44;11.30;41.70
61374;DHT22;47242;48.158;-1.586;2023-03-01T09:26:12;11.30;40.40
61374;DHT22;47242;48.158;-1.586;2023-03-01T09:28:39;11.80;41.20
61374;DHT22;47242;48.158;-1.586;2023-03-01T09:31:06;12.30;40.10
61374;DHT22;47242;48.158;-1.586;2023-03-01T09:33:32;12.70;38.30
61374;DHT22;47242;48.158;-1.586;2023-03-01T09:35:59;13.20;38.80
61374;DHT22;47242;48.158;-1.586;2023-03-01T09:38:25;13.70;38.00
61374;DHT22;47242;48.158;-1.586;2023-03-01T09:40:51;14.30;37.60
61374;DHT22;47242;48.158;-1.586;2023-03-01T09:43:26;14.80;37.00
61374;DHT22;47242;48.158;-1.586;2023-03-01T09:45:59;15.20;35.90
61374;DHT22;47242;48.158;-1.586;2023-03-01T09:48:27;14.90;34.50
61374;DHT22;47242;48.158;-1.586;2023-03-01T09:50:54;14.60;35.40
61374;DHT22;47242;48.158;-1.586;2023-03-01T09:53:25;14.70;35.70
61374;DHT22;47242;48.158;-1.586;2023-03-01T09:56:14;14.70;34.90
61374;DHT22;47242;48.158;-1.586;2023-03-01T09:59:06;14.50;34.70
61374;DHT22;47242;48.158;-1.586;2023-03-01T10:04:44;14.20;34.90
61374;DHT22;47242;48.158;-1.586;2023-03-01T10:09:56;13.20;35.10
61374;DHT22;47242;48.158;-1.586;2023-03-01T10:12:32;12.80;36.80
61374;DHT22;47242;48.158;-1.586;2023-03-01T10:15:08;12.40;37.30
61374;DHT22;47242;48.158;-1.586;2023-03-01T10:20:17;11.80;38.90
61374;DHT22;47242;48.158;-1.586;2023-03-01T10:22:43;11.50;39.80
61374;DHT22;47242;48.158;-1.586;2023-03-01T10:25:14;11.10;40.40
61374;DHT22;47242;48.158;-1.586;2023-03-01T10:27:54;10.70;41.40
61374;DHT22;47242;48.158;-1.586;2023-03-01T10:30:38;10.30;42.30
61374;DHT22;47242;48.158;-1.586;2023-03-01T10:33:15;9.70;43.50
61374;DHT22;47242;48.158;-1.586;2023-03-01T10:35:42;9.30;44.70
61374;DHT22;47242;48.158;-1.586;2023-03-01T10:38:10;9.10;45.60
61374;DHT22;47242;48.158;-1.586;2023-03-01T10:40:56;8.80;46.60
61374;DHT22;47242;48.158;-1.586;2023-03-01T10:43:24;8.50;47.40
61374;DHT22;47242;48.158;-1.586;2023-03-01T10:45:51;8.40;47.50
61374;DHT22;47242;48.158;-1.586;2023-03-01T10:48:19;8.40;48.60
61374;DHT22;47242;48.158;-1.586;2023-03-01T10:50:51;8.30;47.40
61374;DHT22;47242;48.158;-1.586;2023-03-01T10:53:29;8.30;47.20
61374;DHT22;47242;48.158;-1.586;2023-03-01T10:56:04;8.20;48.00
61374;DHT22;47242;48.158;-1.586;2023-03-01T10:58:32;8.00;48.70
61374;DHT22;47242;48.158;-1.586;2023-03-01T11:01:03;8.00;49.20
61374;DHT22;47242;48.158;-1.586;2023-03-01T11:03:35;8.10;49.20
61374;DHT22;47242;48.158;-1.586;2023-03-01T11:08:44;7.90;47.60
61374;DHT22;47242;48.158;-1.586;2023-03-01T11:14:07;7.90;49.10
61374;DHT22;47242;48.158;-1.586;2023-03-01T11:16:39;7.90;48.50
61374;DHT22;47242;48.158;-1.586;2023-03-01T11:21:39;7.80;49.90
61374;DHT22;47242;48.158;-1.586;2023-03-01T11:24:09;7.80;50.10
61374;DHT22;47242;48.158;-1.586;2023-03-01T11:26:42;7.80;49.60
61374;DHT22;47242;48.158;-1.586;2023-03-01T11:29:37;7.90;49.00
61374;DHT22;47242;48.158;-1.586;2023-03-01T11:32:07;8.00;48.60
61374;DHT22;47242;48.158;-1.586;2023-03-01T11:35:05;8.10;49.40
61374;DHT22;47242;48.158;-1.586;2023-03-01T11:37:46;8.00;48.30
61374;DHT22;47242;48.158;-1.586;2023-03-01T11:40:24;8.00;48.30
61374;DHT22;47242;48.158;-1.586;2023-03-01T11:46:00;8.00;47.30
61374;DHT22;47242;48.158;-1.586;2023-03-01T11:48:52;8.10;49.20
61374;DHT22;47242;48.158;-1.586;2023-03-01T11:51:41;7.90;47.60
61374;DHT22;47242;48.158;-1.586;2023-03-01T12:00:07;8.00;48.60
61374;DHT22;47242;48.158;-1.586;2023-03-01T12:08:25;8.20;47.90
61374;DHT22;47242;48.158;-1.586;2023-03-01T12:19:25;8.20;47.50
61374;DHT22;47242;48.158;-1.586;2023-03-01T12:22:17;8.20;47.70
61374;DHT22;47242;48.158;-1.586;2023-03-01T12:38:50;8.50;47.00
61374;DHT22;47242;48.158;-1.586;2023-03-01T12:41:46;8.60;45.90
61374;DHT22;47242;48.158;-1.586;2023-03-01T12:44:27;8.60;46.30
61374;DHT22;47242;48.158;-1.586;2023-03-01T12:47:20;8.60;46.20
61374;DHT22;47242;48.158;-1.586;2023-03-01T12:49:55;8.60;46.90
61374;DHT22;47242;48.158;-1.586;2023-03-01T12:52:35;8.70;46.70
61374;DHT22;47242;48.158;-1.586;2023-03-01T12:55:19;8.70;46.30
61374;DHT22;47242;48.158;-1.586;2023-03-01T12:58:45;8.60;44.90
61374;DHT22;47242;48.158;-1.586;2023-03-01T13:06:29;8.60;46.10
61374;DHT22;47242;48.158;-1.586;2023-03-01T13:11:33;8.70;46.20
61374;DHT22;47242;48.158;-1.586;2023-03-01T13:14:35;8.70;45.90
61374;DHT22;47242;48.158;-1.586;2023-03-01T13:17:01;8.70;45.30
61374;DHT22;47242;48.158;-1.586;2023-03-01T13:19:29;8.70;44.90
61374;DHT22;47242;48.158;-1.586;2023-03-01T13:21:55;8.70;45.80
61374;DHT22;47242;48.158;-1.586;2023-03-01T13:32:23;8.90;44.80
61374;DHT22;47242;48.158;-1.586;2023-03-01T13:34:53;8.90;44.70
61374;DHT22;47242;48.158;-1.586;2023-03-01T13:37:34;8.90;45.00
61374;DHT22;47242;48.158;-1.586;2023-03-01T13:40:05;8.90;44.40
61374;DHT22;47242;48.158;-1.586;2023-03-01T13:42:40;8.90;44.10
61374;DHT22;47242;48.158;-1.586;2023-03-01T13:45:23;9.00;45.10
61374;DHT22;47242;48.158;-1.586;2023-03-01T13:47:57;9.00;45.40
61374;DHT22;47242;48.158;-1.586;2023-03-01T13:50:36;9.00;45.90
61374;DHT22;47242;48.158;-1.586;2023-03-01T13:53:06;9.00;45.50
61374;DHT22;47242;48.158;-1.586;2023-03-01T13:55:41;9.00;45.60
61374;DHT22;47242;48.158;-1.586;2023-03-01T13:58:43;9.10;45.80
61374;DHT22;47242;48.158;-1.586;2023-03-01T14:01:30;9.20;45.50
61374;DHT22;47242;48.158;-1.586;2023-03-01T14:03:57;9.20;44.90
61374;DHT22;47242;48.158;-1.586;2023-03-01T14:06:28;9.30;44.80
61374;DHT22;47242;48.158;-1.586;2023-03-01T14:09:26;9.40;44.60
61374;DHT22;47242;48.158;-1.586;2023-03-01T14:12:14;9.30;43.70
61374;DHT22;47242;48.158;-1.586;2023-03-01T14:15:02;9.30;44.00
61374;DHT22;47242;48.158;-1.586;2023-03-01T14:20:33;9.30;43.70
61374;DHT22;47242;48.158;-1.586;2023-03-01T14:23:14;9.30;44.00
61374;DHT22;47242;48.158;-1.586;2023-03-01T14:25:53;9.30;44.40
61374;DHT22;47242;48.158;-1.586;2023-03-01T14:28:24;9.20;45.00
61374;DHT22;47242;48.158;-1.586;2023-03-01T14:30:53;9.20;44.70
61374;DHT22;47242;48.158;-1.586;2023-03-01T14:36:06;9.30;45.70
61374;DHT22;47242;48.158;-1.586;2023-03-01T14:38:38;9.30;46.10
61374;DHT22;47242;48.158;-1.586;2023-03-01T14:41:15;9.30;45.70
61374;DHT22;47242;48.158;-1.586;2023-03-01T14:43:44;9.30;45.40
61374;DHT22;47242;48.158;-1.586;2023-03-01T14:46:40;9.20;45.10
61374;DHT22;47242;48.158;-1.586;2023-03-01T14:49:24;9.10;46.20
61374;DHT22;47242;48.158;-1.586;2023-03-01T14:52:03;9.00;46.80
61374;DHT22;47242;48.158;-1.586;2023-03-01T14:54:44;8.90;46.90
61374;DHT22;47242;48.158;-1.586;2023-03-01T14:57:20;9.00;47.50
61374;DHT22;47242;48.158;-1.586;2023-03-01T14:59:50;9.10;47.80
61374;DHT22;47242;48.158;-1.586;2023-03-01T15:02:20;9.10;47.90
61374;DHT22;47242;48.158;-1.586;2023-03-01T15:04:49;9.10;48.10
61374;DHT22;47242;48.158;-1.586;2023-03-01T15:07:16;9.10;48.40
61374;DHT22;47242;48.158;-1.586;2023-03-01T15:09:42;9.00;48.40
61374;DHT22;47242;48.158;-1.586;2023-03-01T15:14:52;9.00;49.40
61374;DHT22;47242;48.158;-1.586;2023-03-01T15:19:53;9.10;49.50
61374;DHT22;47242;48.158;-1.586;2023-03-01T15:22:20;9.10;49.50
61374;DHT22;47242;48.158;-1.586;2023-03-01T15:24:48;9.10;49.80
61374;DHT22;47242;48.158;-1.586;2023-03-01T15:27:20;9.20;50.00
61374;DHT22;47242;48.158;-1.586;2023-03-01T15:29:59;9.10;49.90
61374;DHT22;47242;48.158;-1.586;2023-03-01T15:32:34;9.10;49.90
61374;DHT22;47242;48.158;-1.586;2023-03-01T15:35:32;9.00;50.20
61374;DHT22;47242;48.158;-1.586;2023-03-01T15:37:48;9.00;50.40
61374;DHT22;47242;48.158;-1.586;2023-03-01T15:40:26;9.00;50.50
61374;DHT22;47242;48.158;-1.586;2023-03-01T15:43:02;8.90;50.80
61374;DHT22;47242;48.158;-1.586;2023-03-01T15:45:30;8.90;50.90
61374;DHT22;47242;48.158;-1.586;2023-03-01T15:48:05;9.00;51.00
61374;DHT22;47242;48.158;-1.586;2023-03-01T15:50:39;9.00;51.20
61374;DHT22;47242;48.158;-1.586;2023-03-01T15:53:09;8.90;51.40
61374;DHT22;47242;48.158;-1.586;2023-03-01T15:55:36;8.90;51.60
61374;DHT22;47242;48.158;-1.586;2023-03-01T15:58:18;8.90;51.30
61374;DHT22;47242;48.158;-1.586;2023-03-01T16:00:45;8.80;51.70
61374;DHT22;47242;48.158;-1.586;2023-03-01T16:03:14;8.80;51.70
61374;DHT22;47242;48.158;-1.586;2023-03-01T16:05:40;8.80;51.30
61374;DHT22;47242;48.158;-1.586;2023-03-01T16:08:06;8.70;51.50
61374;DHT22;47242;48.158;-1.586;2023-03-01T16:10:33;8.70;52.10
61374;DHT22;47242;48.158;-1.586;2023-03-01T16:12:59;8.70;52.50
61374;DHT22;47242;48.158;-1.586;2023-03-01T16:15:33;8.70;53.10
61374;DHT22;47242;48.158;-1.586;2023-03-01T16:18:02;8.70;53.30
61374;DHT22;47242;48.158;-1.586;2023-03-01T16:20:28;8.60;52.90
61374;DHT22;47242;48.158;-1.586;2023-03-01T16:22:57;8.60;52.70
61374;DHT22;47242;48.158;-1.586;2023-03-01T16:25:23;8.50;53.00
61374;DHT22;47242;48.158;-1.586;2023-03-01T16:27:50;8.40;52.90
61374;DHT22;47242;48.158;-1.586;2023-03-01T16:30:21;8.40;53.10
61374;DHT22;47242;48.158;-1.586;2023-03-01T16:32:48;8.40;52.90
61374;DHT22;47242;48.158;-1.586;2023-03-01T16:35:17;8.30;53.20
61374;DHT22;47242;48.158;-1.586;2023-03-01T16:37:43;8.30;53.40
61374;DHT22;47242;48.158;-1.586;2023-03-01T16:42:44;8.30;53.50
61374;DHT22;47242;48.158;-1.586;2023-03-01T16:45:10;8.30;53.20
61374;DHT22;47242;48.158;-1.586;2023-03-01T16:47:36;8.30;53.50
61374;DHT22;47242;48.158;-1.586;2023-03-01T16:50:02;8.20;53.50
61374;DHT22;47242;48.158;-1.586;2023-03-01T16:52:28;8.20;53.80
61374;DHT22;47242;48.158;-1.586;2023-03-01T16:54:54;8.10;54.20
61374;DHT22;47242;48.158;-1.586;2023-03-01T16:57:20;8.10;54.50
61374;DHT22;47242;48.158;-1.586;2023-03-01T16:59:45;8.10;54.40
61374;DHT22;47242;48.158;-1.586;2023-03-01T17:02:14;8.00;54.50
61374;DHT22;47242;48.158;-1.586;2023-03-01T17:04:50;8.00;54.70
61374;DHT22;47242;48.158;-1.586;2023-03-01T17:07:16;8.00;54.60
61374;DHT22;47242;48.158;-1.586;2023-03-01T17:09:42;7.80;54.50
61374;DHT22;47242;48.158;-1.586;2023-03-01T17:12:08;7.80;54.30
61374;DHT22;47242;48.158;-1.586;2023-03-01T17:14:34;7.80;54.40
61374;DHT22;47242;48.158;-1.586;2023-03-01T17:17:00;7.70;54.50
61374;DHT22;47242;48.158;-1.586;2023-03-01T17:19:26;7.70;54.70
61374;DHT22;47242;48.158;-1.586;2023-03-01T17:21:53;7.70;55.00
61374;DHT22;47242;48.158;-1.586;2023-03-01T17:24:18;7.70;55.00
61374;DHT22;47242;48.158;-1.586;2023-03-01T17:26:44;7.60;55.30
61374;DHT22;47242;48.158;-1.586;2023-03-01T17:29:10;7.60;55.30
61374;DHT22;47242;48.158;-1.586;2023-03-01T17:31:36;7.50;55.50
61374;DHT22;47242;48.158;-1.586;2023-03-01T17:34:02;7.50;55.30
61374;DHT22;47242;48.158;-1.586;2023-03-01T17:36:27;7.40;55.50
61374;DHT22;47242;48.158;-1.586;2023-03-01T17:38:53;7.40;55.50
61374;DHT22;47242;48.158;-1.586;2023-03-01T17:41:18;7.30;55.60
61374;DHT22;47242;48.158;-1.586;2023-03-01T17:43:46;7.30;55.60
61374;DHT22;47242;48.158;-1.586;2023-03-01T17:46:12;7.20;55.60
61374;DHT22;47242;48.158;-1.586;2023-03-01T17:48:38;7.20;55.80
61374;DHT22;47242;48.158;-1.586;2023-03-01T17:51:08;7.20;56.00
61374;DHT22;47242;48.158;-1.586;2023-03-01T17:53:36;7.10;55.90
61374;DHT22;47242;48.158;-1.586;2023-03-01T17:56:04;7.10;56.00
61374;DHT22;47242;48.158;-1.586;2023-03-01T17:58:30;7.10;55.90
61374;DHT22;47242;48.158;-1.586;2023-03-01T18:01:06;6.90;56.10
61374;DHT22;47242;48.158;-1.586;2023-03-01T18:03:32;6.80;56.40
61374;DHT22;47242;48.158;-1.586;2023-03-01T18:05:57;6.80;56.80
61374;DHT22;47242;48.158;-1.586;2023-03-01T18:08:23;6.80;56.70
61374;DHT22;47242;48.158;-1.586;2023-03-01T18:10:49;6.80;56.90
61374;DHT22;47242;48.158;-1.586;2023-03-01T18:13:22;6.70;56.90
61374;DHT22;47242;48.158;-1.586;2023-03-01T18:15:47;6.80;57.20
61374;DHT22;47242;48.158;-1.586;2023-03-01T18:18:13;6.80;57.40
61374;DHT22;47242;48.158;-1.586;2023-03-01T18:20:39;6.80;57.40
61374;DHT22;47242;48.158;-1.586;2023-03-01T18:23:07;6.70;57.70
61374;DHT22;47242;48.158;-1.586;2023-03-01T18:25:33;6.70;57.70
61374;DHT22;47242;48.158;-1.586;2023-03-01T18:27:58;6.70;58.10
61374;DHT22;47242;48.158;-1.586;2023-03-01T18:30:26;6.70;58.20
61374;DHT22;47242;48.158;-1.586;2023-03-01T18:32:51;6.70;58.20
61374;DHT22;47242;48.158;-1.586;2023-03-01T18:35:21;6.70;58.40
61374;DHT22;47242;48.158;-1.586;2023-03-01T18:37:47;6.70;58.60
61374;DHT22;47242;48.158;-1.586;2023-03-01T18:40:14;6.60;58.60
61374;DHT22;47242;48.158;-1.586;2023-03-01T18:42:40;6.60;59.00
61374;DHT22;47242;48.158;-1.586;2023-03-01T18:45:06;6.50;59.20
61374;DHT22;47242;48.158;-1.586;2023-03-01T18:47:32;6.50;59.20
61374;DHT22;47242;48.158;-1.586;2023-03-01T18:49:57;6.50;59.50
61374;DHT22;47242;48.158;-1.586;2023-03-01T18:52:23;6.50;59.50
61374;DHT22;47242;48.158;-1.586;2023-03-01T18:54:48;6.50;59.50
61374;DHT22;47242;48.158;-1.586;2023-03-01T18:57:14;6.50;59.50
61374;DHT22;47242;48.158;-1.586;2023-03-01T18:59:39;6.40;59.90
61374;DHT22;47242;48.158;-1.586;2023-03-01T19:02:05;6.40;60.10
61374;DHT22;47242;48.158;-1.586;2023-03-01T19:04:31;6.40;60.10
61374;DHT22;47242;48.158;-1.586;2023-03-01T19:06:57;6.30;60.50
61374;DHT22;47242;48.158;-1.586;2023-03-01T19:09:22;6.20;60.60
61374;DHT22;47242;48.158;-1.586;2023-03-01T19:11:48;6.20;60.90
61374;DHT22;47242;48.158;-1.586;2023-03-01T19:14:13;6.20;61.00
61374;DHT22;47242;48.158;-1.586;2023-03-01T19:16:39;6.20;61.10
61374;DHT22;47242;48.158;-1.586;2023-03-01T19:19:05;6.10;61.60
61374;DHT22;47242;48.158;-1.586;2023-03-01T19:21:32;6.10;61.70
61374;DHT22;47242;48.158;-1.586;2023-03-01T19:23:59;6.20;61.70
61374;DHT22;47242;48.158;-1.586;2023-03-01T19:26:27;6.10;61.90
61374;DHT22;47242;48.158;-1.586;2023-03-01T19:28:53;6.10;62.00
61374;DHT22;47242;48.158;-1.586;2023-03-01T19:31:22;6.10;62.10
61374;DHT22;47242;48.158;-1.586;2023-03-01T19:33:50;6.20;62.10
61374;DHT22;47242;48.158;-1.586;2023-03-01T19:36:16;6.10;62.30
61374;DHT22;47242;48.158;-1.586;2023-03-01T19:38:42;6.10;62.50
61374;DHT22;47242;48.158;-1.586;2023-03-01T19:41:10;6.00;62.70
61374;DHT22;47242;48.158;-1.586;2023-03-01T19:43:36;6.10;62.70
61374;DHT22;47242;48.158;-1.586;2023-03-01T19:46:02;6.00;63.00
61374;DHT22;47242;48.158;-1.586;2023-03-01T19:48:29;5.90;63.10
61374;DHT22;47242;48.158;-1.586;2023-03-01T19:50:54;5.90;63.40
61374;DHT22;47242;48.158;-1.586;2023-03-01T19:53:20;5.90;63.70
61374;DHT22;47242;48.158;-1.586;2023-03-01T19:55:46;6.00;63.60
61374;DHT22;47242;48.158;-1.586;2023-03-01T19:58:12;5.90;63.70
61374;DHT22;47242;48.158;-1.586;2023-03-01T20:00:39;5.90;64.20
61374;DHT22;47242;48.158;-1.586;2023-03-01T20:03:05;5.90;64.00
61374;DHT22;47242;48.158;-1.586;2023-03-01T20:05:37;5.90;64.10
61374;DHT22;47242;48.158;-1.586;2023-03-01T20:08:03;5.90;64.20
61374;DHT22;47242;48.158;-1.586;2023-03-01T20:10:32;5.90;64.30
61374;DHT22;47242;48.158;-1.586;2023-03-01T20:12:58;5.90;64.30
61374;DHT22;47242;48.158;-1.586;2023-03-01T20:15:27;5.90;64.10
61374;DHT22;47242;48.158;-1.586;2023-03-01T20:17:52;5.90;64.10
61374;DHT22;47242;48.158;-1.586;2023-03-01T20:20:18;5.90;64.10
61374;DHT22;47242;48.158;-1.586;2023-03-01T20:22:44;5.80;64.20
61374;DHT22;47242;48.158;-1.586;2023-03-01T20:25:10;5.80;64.30
61374;DHT22;47242;48.158;-1.586;2023-03-01T20:27:36;5.80;64.50
61374;DHT22;47242;48.158;-1.586;2023-03-01T20:30:02;5.80;64.70
61374;DHT22;47242;48.158;-1.586;2023-03-01T20:32:27;5.80;64.80
61374;DHT22;47242;48.158;-1.586;2023-03-01T20:34:54;5.80;64.70
61374;DHT22;47242;48.158;-1.586;2023-03-01T20:37:20;5.80;64.60
61374;DHT22;47242;48.158;-1.586;2023-03-01T20:39:49;5.80;64.80
61374;DHT22;47242;48.158;-1.586;2023-03-01T20:42:15;5.80;64.90
61374;DHT22;47242;48.158;-1.586;2023-03-01T20:44:41;5.80;64.80
61374;DHT22;47242;48.158;-1.586;2023-03-01T20:47:13;5.70;65.00
61374;DHT22;47242;48.158;-1.586;2023-03-01T20:49:39;5.70;65.10
61374;DHT22;47242;48.158;-1.586;2023-03-01T20:52:05;5.70;65.30
61374;DHT22;47242;48.158;-1.586;2023-03-01T20:54:30;5.70;65.20
61374;DHT22;47242;48.158;-1.586;2023-03-01T20:56:56;5.70;65.30
61374;DHT22;47242;48.158;-1.586;2023-03-01T20:59:22;5.70;65.40
61374;DHT22;47242;48.158;-1.586;2023-03-01T21:01:48;5.60;65.40
61374;DHT22;47242;48.158;-1.586;2023-03-01T21:04:14;5.60;65.50
61374;DHT22;47242;48.158;-1.586;2023-03-01T21:06:42;5.60;65.30
61374;DHT22;47242;48.158;-1.586;2023-03-01T21:09:08;5.50;65.60
61374;DHT22;47242;48.158;-1.586;2023-03-01T21:11:34;5.50;65.70
61374;DHT22;47242;48.158;-1.586;2023-03-01T21:13:59;5.50;65.60
61374;DHT22;47242;48.158;-1.586;2023-03-01T21:16:27;5.40;65.80
61374;DHT22;47242;48.158;-1.586;2023-03-01T21:18:52;5.40;66.00
61374;DHT22;47242;48.158;-1.586;2023-03-01T21:21:21;5.30;66.30
61374;DHT22;47242;48.158;-1.586;2023-03-01T21:23:47;5.30;66.30
61374;DHT22;47242;48.158;-1.586;2023-03-01T21:26:20;5.30;66.30
61374;DHT22;47242;48.158;-1.586;2023-03-01T21:28:47;5.30;66.30
61374;DHT22;47242;48.158;-1.586;2023-03-01T21:31:20;5.30;66.30
61374;DHT22;47242;48.158;-1.586;2023-03-01T21:33:50;5.20;66.40
61374;DHT22;47242;48.158;-1.586;2023-03-01T21:36:16;5.20;66.20
61374;DHT22;47242;48.158;-1.586;2023-03-01T21:38:44;5.10;66.30
61374;DHT22;47242;48.158;-1.586;2023-03-01T21:41:17;5.10;66.30
61374;DHT22;47242;48.158;-1.586;2023-03-01T21:43:44;5.10;66.30
61374;DHT22;47242;48.158;-1.586;2023-03-01T21:46:13;5.00;66.60
61374;DHT22;47242;48.158;-1.586;2023-03-01T21:48:42;5.10;66.70
61374;DHT22;47242;48.158;-1.586;2023-03-01T21:51:09;4.90;67.10
61374;DHT22;47242;48.158;-1.586;2023-03-01T21:53:35;4.90;66.90
61374;DHT22;47242;48.158;-1.586;2023-03-01T21:56:03;4.80;66.60
61374;DHT22;47242;48.158;-1.586;2023-03-01T21:58:29;4.80;67.10
61374;DHT22;47242;48.158;-1.586;2023-03-01T22:00:57;4.70;67.60
61374;DHT22;47242;48.158;-1.586;2023-03-01T22:03:23;4.70;67.90
61374;DHT22;47242;48.158;-1.586;2023-03-01T22:05:56;4.80;67.60
61374;DHT22;47242;48.158;-1.586;2023-03-01T22:08:21;4.70;67.60
61374;DHT22;47242;48.158;-1.586;2023-03-01T22:10:47;4.70;68.00
61374;DHT22;47242;48.158;-1.586;2023-03-01T22:13:15;4.70;67.90
61374;DHT22;47242;48.158;-1.586;2023-03-01T22:15:41;4.70;68.10
61374;DHT22;47242;48.158;-1.586;2023-03-01T22:18:09;4.70;68.00
61374;DHT22;47242;48.158;-1.586;2023-03-01T22:20:35;4.70;68.00
61374;DHT22;47242;48.158;-1.586;2023-03-01T22:23:01;4.70;67.80
61374;DHT22;47242;48.158;-1.586;2023-03-01T22:25:26;4.70;68.30
61374;DHT22;47242;48.158;-1.586;2023-03-01T22:27:52;4.70;68.40
